Time;durP1;ratioP1;P1;durP2;ratioP2;P2;SDS_P1;SDS_P2;PMS_P1;PMS_P2;Temp;Humidity;BMP_temperature;BMP_pressure;BME280_temperature;BME280_humidity;BME280_pressure;Samples;Min_cycle;Max_cycle;Signal;HPM_P1;HPM_P2
2023/06/25 00:01:55;;;;;;;26.95;15.95;;;;;;;18.43;84.45;102009.88;10254361;28;20399;-69
2023/06/25 00:06:55;;;;;;;31.70;18.55;;;;;;;18.36;86.61;102001.69;10254433;29;20124;-69
2023/06/25 00:11:56;;;;;;;27.63;17.10;;;;;;;18.33;86.79;101997.47;10253131;29;20454;-69
2023/06/25 00:16:57;;;;;;;24.52;16.98;;;;;;;18.29;87.12;101992.69;10251499;29;20082;-69
2023/06/25 00:21:57;;;;;;;24.25;18.30;;;;;;;18.29;87.09;101990.78;10252931;28;20347;-69
2023/06/25 00:26:58;;;;;;;23.35;17.23;;;;;;;18.34;87.58;101984.59;10251622;29;20042;-68
2023/06/25 00:31:58;;;;;;;22.25;17.58;;;;;;;18.34;87.36;101977.22;10251339;29;20030;-69
2023/06/25 00:36:58;;;;;;;18.92;16.10;;;;;;;18.36;88.45;101971.53;10250398;29;20055;-69
2023/06/25 00:42:00;;;;;;;22.33;17.20;;;;;;;18.41;88.96;101965.34;10267356;28;20035;-69
2023/06/25 00:47:01;;;;;;;21.02;15.13;;;;;;;18.44;88.84;101956.69;10250155;29;20042;-69
2023/06/25 00:52:08;;;;;;;19.83;13.02;;;;;;;18.52;89.96;101956.41;10251284;29;20034;-71
2023/06/25 00:57:09;;;;;;;15.65;13.20;;;;;;;18.58;91.31;101952.78;10236142;29;20130;-69
2023/06/25 01:02:43;;;;;;;19.83;13.18;;;;;;;18.61;93.05;101944.09;10250888;29;20082;-69
2023/06/25 01:07:44;;;;;;;17.15;12.10;;;;;;;18.56;92.21;101930.19;10249593;29;20050;-69
2023/06/25 01:12:44;;;;;;;15.07;12.10;;;;;;;18.55;91.67;101931.28;10251209;28;20455;-69
2023/06/25 01:17:48;;;;;;;16.80;13.75;;;;;;;18.45;91.29;101931.78;10258794;29;20094;-69
2023/06/25 01:22:49;;;;;;;14.85;12.10;;;;;;;18.44;91.28;101923.75;10258526;28;20114;-69
2023/06/25 01:27:50;;;;;;;18.85;12.10;;;;;;;18.36;90.43;101922.16;10257439;29;20044;-69
2023/06/25 01:32:50;;;;;;;24.83;13.32;;;;;;;18.32;91.49;101916.28;10259246;28;20067;-70
2023/06/25 01:37:51;;;;;;;20.20;13.02;;;;;;;18.31;91.65;101909.13;10259421;29;20453;-69
2023/06/25 01:42:52;;;;;;;17.20;12.65;;;;;;;18.30;92.11;101901.94;10257021;29;20039;-69
2023/06/25 01:47:53;;;;;;;16.05;12.98;;;;;;;18.29;92.22;101893.97;10240239;29;20037;-69
2023/06/25 01:52:53;;;;;;;17.65;12.05;;;;;;;18.28;91.54;101886.78;10255817;29;20503;-69
2023/06/25 01:57:54;;;;;;;14.50;12.00;;;;;;;18.24;91.26;101880.09;10240291;29;20040;-69
2023/06/25 02:02:54;;;;;;;20.25;11.48;;;;;;;18.19;91.48;101872.53;10257237;29;20054;-69
2023/06/25 02:07:54;;;;;;;21.15;12.85;;;;;;;18.12;91.59;101858.91;10271369;28;20050;-69
2023/06/25 02:12:56;;;;;;;17.75;13.43;;;;;;;18.13;91.76;101857.81;10255091;29;20050;-69
2023/06/25 02:17:56;;;;;;;18.10;11.90;;;;;;;18.04;92.03;101850.09;10254777;29;20051;-69
2023/06/25 02:22:57;;;;;;;18.83;11.00;;;;;;;18.03;91.86;101854.75;10254899;28;20039;-69
2023/06/25 02:27:57;;;;;;;20.00;12.63;;;;;;;17.97;91.85;101852.06;10255479;29;20046;-69
2023/06/25 02:32:58;;;;;;;15.95;12.68;;;;;;;17.99;92.67;101849.94;10255472;29;20063;-69
2023/06/25 02:37:58;;;;;;;16.00;14.05;;;;;;;17.97;93.93;101844.69;10254845;29;20051;-69
2023/06/25 02:42:58;;;;;;;21.27;13.73;;;;;;;17.98;94.63;101837.28;10255066;29;20117;-70
2023/06/25 02:47:59;;;;;;;24.02;13.18;;;;;;;18.00;94.72;101835.19;10254838;29;20352;-69
2023/06/25 02:53:01;;;;;;;16.63;13.15;;;;;;;17.96;94.64;101836.66;10253160;29;20502;-69
2023/06/25 02:58:01;;;;;;;17.73;11.65;;;;;;;17.92;93.87;101841.75;10254408;28;20039;-69
2023/06/25 03:03:02;;;;;;;20.98;14.70;;;;;;;17.87;94.24;101839.72;10253815;29;20387;-69
2023/06/25 03:08:03;;;;;;;15.00;12.15;;;;;;;17.88;96.26;101832.31;10253492;29;20447;-70
2023/06/25 03:13:04;;;;;;;19.40;14.10;;;;;;;17.89;96.55;101839.47;10254806;28;20047;-69
2023/06/25 03:18:05;;;;;;;19.75;15.82;;;;;;;17.88;97.29;101830.41;10253695;29;20134;-70
2023/06/25 03:23:05;;;;;;;15.30;13.63;;;;;;;17.88;98.34;101830.41;10253003;29;20127;-69
2023/06/25 03:28:06;;;;;;;21.25;13.20;;;;;;;17.93;98.70;101821.50;10254018;29;20122;-69
2023/06/25 03:33:06;;;;;;;22.17;13.93;;;;;;;17.91;100.00;101820.91;10254814;29;20113;-69
2023/06/25 03:38:07;;;;;;;19.20;14.02;;;;;;;17.94;100.00;101814.16;10252428;28;20055;-70
2023/06/25 03:43:07;;;;;;;18.35;15.30;;;;;;;17.93;100.00;101804.22;10252854;28;20526;-69
2023/06/25 03:48:07;;;;;;;25.25;14.75;;;;;;;17.93;100.00;101812.44;10251904;29;20046;-69
2023/06/25 03:53:08;;;;;;;21.63;15.77;;;;;;;17.96;100.00;101812.00;10268421;28;20050;-69
2023/06/25 03:58:09;;;;;;;17.70;15.15;;;;;;;17.97;100.00;101805.47;10251285;29;20375;-69
2023/06/25 04:03:09;;;;;;;27.67;17.27;;;;;;;17.96;100.00;101801.88;10253333;29;20529;-69
2023/06/25 04:08:09;;;;;;;28.02;15.68;;;;;;;18.01;100.00;101803.97;10257847;29;20042;-69
2023/06/25 04:13:10;;;;;;;17.35;15.38;;;;;;;18.03;100.00;101807.31;10252807;29;20488;-70
2023/06/25 04:18:10;;;;;;;25.02;15.68;;;;;;;18.07;100.00;101797.59;10252686;29;20043;-69
2023/06/25 04:23:11;;;;;;;22.33;14.73;;;;;;;18.13;100.00;101810.38;10250440;29;20134;-69
2023/06/25 04:28:17;;;;;;;23.90;16.98;;;;;;;18.27;100.00;101808.34;10251473;29;20046;-69
2023/06/25 04:33:19;;;;;;;;;;;;;;;18.39;100.00;101809.28;10251437;28;20020;-70
2023/06/25 04:38:20;;;;;;;18.77;16.17;;;;;;;18.58;100.00;101799.97;10251220;29;19966;-69
2023/06/25 04:43:20;;;;;;;27.65;16.75;;;;;;;19.87;100.00;101796.09;10251670;28;20134;-69
2023/06/25 04:48:20;;;;;;;31.17;17.05;;;;;;;20.70;100.00;101794.97;10250465;28;20043;-69
2023/06/25 04:53:21;;;;;;;21.42;16.15;;;;;;;21.34;100.00;101803.09;10251103;28;20031;-70
2023/06/25 04:58:21;;;;;;;19.02;15.50;;;;;;;21.96;100.00;101788.47;10250921;29;20419;-70
2023/06/25 05:03:22;;;;;;;17.40;15.23;;;;;;;22.34;100.00;101793.22;10265434;28;20031;-69
2023/06/25 05:08:22;;;;;;;16.38;14.63;;;;;;;22.70;100.00;101794.50;10251579;29;20070;-69
2023/06/25 05:13:22;;;;;;;15.85;12.68;;;;;;;23.02;100.00;101798.50;10250398;29;20126;-70
2023/06/25 05:18:23;;;;;;;18.65;14.60;;;;;;;23.41;100.00;101796.41;10249309;29;20059;-69
2023/06/25 05:23:24;;;;;;;17.83;14.45;;;;;;;24.01;100.00;101805.53;10250133;28;20570;-70
2023/06/25 05:28:24;;;;;;;18.88;13.00;;;;;;;24.46;98.22;101796.69;10249855;29;20035;-69
2023/06/25 05:33:25;;;;;;;16.80;13.02;;;;;;;24.86;95.37;101789.69;10249179;28;20103;-69
2023/06/25 05:38:25;;;;;;;19.00;14.60;;;;;;;25.28;92.95;101797.84;10249801;29;20364;-70
2023/06/25 05:43:25;;;;;;;13.23;11.73;;;;;;;25.57;89.18;101799.28;10250059;28;20103;-71
2023/06/25 05:48:26;;;;;;;17.75;14.65;;;;;;;26.17;86.66;101801.19;10249601;29;20039;-70
2023/06/25 05:53:26;;;;;;;17.08;12.10;;;;;;;26.49;83.40;101804.75;10247677;29;20117;-70
2023/06/25 05:58:27;;;;;;;16.08;12.18;;;;;;;26.87;80.68;101794.88;10250477;28;20043;-69
2023/06/25 06:03:27;;;;;;;19.20;13.00;;;;;;;27.21;78.45;101803.31;10255459;29;20539;-70
2023/06/25 06:08:28;;;;;;;16.92;11.05;;;;;;;27.69;76.88;101785.97;10255551;29;20039;-70
2023/06/25 06:13:28;;;;;;;13.98;12.13;;;;;;;27.81;70.61;101790.06;10255547;28;20035;-70
2023/06/25 06:18:28;;;;;;;13.30;10.55;;;;;;;28.16;70.28;101778.88;10270593;28;20097;-70
2023/06/25 06:23:29;;;;;;;12.32;10.23;;;;;;;28.58;65.70;101777.31;10255313;29;20493;-70
2023/06/25 06:28:29;;;;;;;10.63;9.52;;;;;;;28.92;62.61;101772.38;10255783;29;20523;-69
2023/06/25 06:33:31;;;;;;;10.07;9.15;;;;;;;29.53;62.29;101775.41;10256631;29;20039;-70
2023/06/25 06:38:31;;;;;;;10.90;9.80;;;;;;;30.06;61.12;101780.63;10255873;28;20078;-70
2023/06/25 06:43:32;;;;;;;10.23;9.13;;;;;;;30.24;56.51;101776.13;10255931;28;20078;-70
2023/06/25 06:48:32;;;;;;;8.57;7.78;;;;;;;30.52;55.30;101765.78;10255527;29;20078;-69
2023/06/25 06:53:33;;;;;;;11.63;9.40;;;;;;;30.97;56.27;101763.13;10254394;29;20368;-70
2023/06/25 06:58:33;;;;;;;10.05;8.57;;;;;;;31.32;51.73;101755.03;10254017;28;20050;-70
2023/06/25 07:03:33;;;;;;;10.82;8.07;;;;;;;31.90;52.23;101748.53;10254463;28;20122;-69
2023/06/25 07:08:34;;;;;;;7.93;6.85;;;;;;;32.23;50.12;101750.97;10252889;29;20039;-69
2023/06/25 07:13:34;;;;;;;6.50;5.90;;;;;;;32.46;42.87;101752.59;10252374;28;20027;-70
2023/06/25 07:18:35;;;;;;;6.18;5.57;;;;;;;32.55;46.47;101759.03;10253132;29;20372;-69
2023/06/25 07:23:35;;;;;;;6.57;4.28;;;;;;;32.82;42.29;101752.31;10220793;29;20035;-69
2023/06/25 07:28:36;;;;;;;6.63;5.13;;;;;;;32.83;39.97;101761.56;10268278;28;20061;-69
2023/06/25 07:33:37;;;;;;;7.60;4.93;;;;;;;32.98;40.08;101755.50;10253083;28;20106;-69
2023/06/25 07:38:37;;;;;;;5.03;4.55;;;;;;;33.33;39.75;101752.69;10253087;28;20078;-71
2023/06/25 07:43:38;;;;;;;4.53;4.13;;;;;;;33.59;41.20;101743.41;10252074;29;20035;-70
2023/06/25 07:48:38;;;;;;;5.13;4.20;;;;;;;34.46;42.43;101743.91;10251691;28;20050;-70
2023/06/25 07:53:39;;;;;;;8.90;3.83;;;;;;;34.68;38.94;101740.00;10267602;28;20027;-70
2023/06/25 07:58:39;;;;;;;3.83;3.53;;;;;;;34.61;34.18;101734.09;10252114;28;20359;-70
2023/06/25 08:03:39;;;;;;;3.33;3.03;;;;;;;33.86;30.73;101728.97;10252756;28;20039;-70
2023/06/25 08:08:40;;;;;;;5.88;3.95;;;;;;;34.30;31.43;101726.78;10250229;29;20880;-70
2023/06/25 08:13:40;;;;;;;2.53;2.40;;;;;;;34.82;36.25;101718.06;10251980;29;20125;-71
2023/06/25 08:18:41;;;;;;;3.15;2.95;;;;;;;34.99;32.01;101711.44;10251864;29;20337;-70
2023/06/25 08:23:41;;;;;;;3.20;3.05;;;;;;;35.60;34.07;101696.81;10233149;29;20067;-70
2023/06/25 08:28:42;;;;;;;3.47;2.92;;;;;;;35.29;30.04;101703.75;10251703;29;20377;-70
2023/06/25 08:33:43;;;;;;;3.20;2.88;;;;;;;34.83;28.92;101707.63;10249573;29;20032;-70
2023/06/25 08:38:43;;;;;;;3.33;3.10;;;;;;;34.68;31.09;101698.59;10233110;29;20051;-70
2023/06/25 08:43:44;;;;;;;2.60;2.50;;;;;;;35.17;28.41;101695.25;10251001;29;20082;-70
2023/06/25 08:48:45;;;;;;;3.90;3.60;;;;;;;34.85;28.79;101688.41;10250237;29;20365;-70
2023/06/25 08:53:45;;;;;;;4.07;3.42;;;;;;;35.19;30.82;101690.09;10233175;29;20417;-70
2023/06/25 08:58:46;;;;;;;3.40;3.17;;;;;;;35.76;31.95;101683.69;10248397;29;20149;-70
2023/06/25 09:03:47;;;;;;;4.05;2.92;;;;;;;35.88;31.39;101676.41;10247801;29;20372;-70
2023/06/25 09:08:48;;;;;;;3.75;3.08;;;;;;;36.00;27.84;101667.97;10248292;29;20042;-69
2023/06/25 09:13:49;;;;;;;3.58;3.10;;;;;;;36.19;31.87;101670.22;10249360;29;20066;-67
2023/06/25 09:18:49;;;;;;;4.95;2.78;;;;;;;36.86;31.66;101667.84;10248751;29;20093;-67
2023/06/25 09:23:53;;;;;;;6.38;3.13;;;;;;;37.66;32.10;101667.69;10249271;29;20063;-68
2023/06/25 09:28:59;;;;;;;3.92;3.25;;;;;;;37.75;31.04;101675.16;10249525;28;20082;-68
2023/06/25 09:34:02;;;;;;;5.93;2.45;;;;;;;37.64;28.75;101655.91;10236211;28;20094;-68
2023/06/25 09:39:04;;;;;;;3.35;2.80;;;;;;;37.78;28.92;101652.66;10255440;29;20071;-68
2023/06/25 09:44:05;;;;;;;3.17;2.88;;;;;;;37.07;27.81;101656.38;10239434;29;20047;-68
2023/06/25 09:49:07;;;;;;;4.43;2.53;;;;;;;36.96;27.05;101648.38;10255301;29;20039;-68
2023/06/25 09:54:08;;;;;;;3.15;2.95;;;;;;;37.48;28.96;101640.97;10239047;29;20505;-69
2023/06/25 09:59:08;;;;;;;2.97;2.47;;;;;;;38.18;30.43;101633.81;10255432;29;20094;-68
2023/06/25 10:04:09;;;;;;;2.97;2.77;;;;;;;38.48;28.48;101629.25;10239694;29;20491;-67
2023/06/25 10:09:09;;;;;;;3.25;3.03;;;;;;;38.53;29.31;101625.31;10238761;29;20371;-68
2023/06/25 10:14:09;;;;;;;3.20;2.97;;;;;;;38.48;28.37;101626.41;10256230;29;20031;-67
2023/06/25 10:19:19;;;;;;;3.60;3.30;;;;;;;38.65;27.82;101621.53;10239036;29;20043;-66
2023/06/25 10:24:19;;;;;;;2.63;2.20;;;;;;;38.28;28.90;101617.06;10255035;29;20414;-67
2023/06/25 10:29:20;;;;;;;5.53;2.80;;;;;;;38.36;29.94;101613.22;10254226;29;20095;-67
2023/06/25 10:34:20;;;;;;;3.77;3.47;;;;;;;37.99;27.39;101609.94;10254523;29;20281;-66
2023/06/25 10:39:20;;;;;;;2.90;2.70;;;;;;;37.80;26.45;101595.72;10253877;29;20290;-67
2023/06/25 10:44:27;;;;;;;4.10;3.45;;;;;;;37.95;27.56;101588.44;10253701;28;20265;-68
2023/06/25 10:49:27;;;;;;;3.17;2.97;;;;;;;38.50;28.90;101569.47;10237273;29;20094;-67
2023/06/25 10:54:28;;;;;;;3.77;3.13;;;;;;;38.94;28.73;101564.28;10237207;29;20424;-67
2023/06/25 10:59:28;;;;;;;3.33;3.13;;;;;;;38.41;24.83;101572.50;10255529;29;20371;-69
2023/06/25 11:04:29;;;;;;;5.53;3.43;;;;;;;37.14;26.11;101567.03;10252645;29;20067;-68
2023/06/25 11:09:29;;;;;;;3.15;2.95;;;;;;;37.39;28.11;101559.16;10253705;29;20634;-69
2023/06/25 11:14:30;;;;;;;4.25;3.28;;;;;;;37.32;25.56;101559.00;10252754;29;20070;-69
2023/06/25 11:19:30;;;;;;;3.50;3.20;;;;;;;36.87;26.16;101559.41;10253449;29;20126;-68
2023/06/25 11:24:35;;;;;;;3.22;3.03;;;;;;;36.84;26.88;101534.72;10236461;29;20039;-68
2023/06/25 11:29:39;;;;;;;4.05;3.65;;;;;;;36.76;25.66;101531.72;10252058;29;20039;-68
2023/06/25 11:34:43;;;;;;;4.90;2.97;;;;;;;36.71;26.99;101528.31;10251376;29;20043;-68
2023/06/25 11:39:45;;;;;;;7.53;3.55;;;;;;;37.14;26.49;101527.50;10236237;29;20047;-68
2023/06/25 11:44:45;;;;;;;4.22;3.60;;;;;;;36.94;26.76;101520.06;10252205;29;20039;-66
2023/06/25 11:49:54;;;;;;;3.97;3.78;;;;;;;36.36;25.79;101528.09;10234819;29;20027;-69
2023/06/25 11:54:55;;;;;;;5.28;4.30;;;;;;;36.80;25.78;101514.06;10252025;28;20031;-69
2023/06/25 11:59:56;;;;;;;4.18;3.83;;;;;;;36.66;26.08;101506.81;10250281;28;20145;-67
2023/06/25 12:04:56;;;;;;;4.50;4.10;;;;;;;36.36;25.24;101511.19;10251965;28;20065;-68
2023/06/25 12:09:56;;;;;;;4.25;3.85;;;;;;;36.67;26.27;101499.19;10252274;28;20145;-68
2023/06/25 12:14:57;;;;;;;4.50;4.10;;;;;;;37.03;26.75;101498.16;10251845;29;20137;-68
2023/06/25 12:19:57;;;;;;;5.72;4.38;;;;;;;37.53;26.64;101492.97;10249829;29;20416;-69
2023/06/25 12:24:58;;;;;;;7.87;4.90;;;;;;;38.48;27.02;101490.59;10250905;28;20039;-68
2023/06/25 12:29:58;;;;;;;4.63;4.27;;;;;;;38.62;26.26;101481.56;10251710;29;20301;-68
2023/06/25 12:34:58;;;;;;;3.88;3.55;;;;;;;38.58;26.44;101477.88;10250394;29;20347;-67
2023/06/25 12:39:59;;;;;;;3.93;3.33;;;;;;;38.38;26.14;101468.56;10250617;29;20051;-69
2023/06/25 12:44:59;;;;;;;4.93;4.53;;;;;;;38.61;25.90;101469.44;10250483;29;20332;-68
2023/06/25 12:50:00;;;;;;;3.90;3.60;;;;;;;37.75;25.16;101460.31;10248535;29;20035;-68
2023/06/25 12:55:01;;;;;;;4.32;3.78;;;;;;;37.63;27.17;101459.28;10248718;29;20488;-68
2023/06/25 13:00:04;;;;;;;4.35;3.90;;;;;;;37.95;25.34;101456.38;10251484;28;20069;-68
2023/06/25 13:05:05;;;;;;;8.85;3.45;;;;;;;37.26;26.61;101449.50;10248597;29;20345;-68
2023/06/25 13:10:06;;;;;;;8.43;4.75;;;;;;;37.45;27.35;101452.41;10249174;28;20031;-67
2023/06/25 13:15:07;;;;;;;4.20;3.85;;;;;;;37.68;25.75;101453.31;10249273;28;20057;-67
2023/06/25 13:20:08;;;;;;;4.75;4.35;;;;;;;37.43;27.36;101454.72;10248177;29;20034;-69
2023/06/25 13:25:08;;;;;;;5.50;4.47;;;;;;;37.38;27.09;101446.56;10232535;29;20066;-69
2023/06/25 13:30:09;;;;;;;5.17;4.67;;;;;;;37.50;27.78;101435.16;10249080;29;20031;-68
2023/06/25 13:35:09;;;;;;;4.93;4.53;;;;;;;37.90;28.03;101434.00;10232227;29;20328;-68
2023/06/25 13:40:10;;;;;;;9.03;5.73;;;;;;;37.61;26.70;101424.09;10249876;29;20063;-69
2023/06/25 13:45:10;;;;;;;4.28;3.97;;;;;;;37.35;28.00;101419.03;10247944;29;20368;-68
2023/06/25 13:50:11;;;;;;;4.63;4.28;;;;;;;37.47;28.63;101418.94;10247758;29;20036;-68
2023/06/25 13:55:11;;;;;;;4.10;3.63;;;;;;;37.63;29.09;101408.41;10250121;29;20122;-68
2023/06/25 14:00:12;;;;;;;8.75;5.65;;;;;;;37.92;28.98;101403.38;10250818;28;20043;-68
2023/06/25 14:05:13;;;;;;;3.67;3.38;;;;;;;37.85;28.83;101394.72;10249674;28;20047;-68
2023/06/25 14:10:13;;;;;;;5.32;4.20;;;;;;;37.60;27.07;101385.72;10250060;29;20460;-68
2023/06/25 14:15:13;;;;;;;6.93;4.37;;;;;;;36.90;28.31;101383.66;10249307;29;20042;-69
2023/06/25 14:20:14;;;;;;;3.90;3.60;;;;;;;36.62;28.63;101384.56;10234835;28;20344;-68
2023/06/25 14:25:14;;;;;;;4.07;3.72;;;;;;;36.14;28.29;101372.38;10256464;28;20130;-67
2023/06/25 14:30:15;;;;;;;3.30;3.10;;;;;;;36.42;29.03;101371.53;10254394;29;20065;-72
2023/06/25 14:35:16;;;;;;;3.38;3.17;;;;;;;36.43;28.36;101367.50;10237693;29;20103;-72
2023/06/25 14:40:16;;;;;;;4.63;4.07;;;;;;;36.03;27.67;101374.09;10237661;29;20114;-71
2023/06/25 14:45:17;;;;;;;6.10;4.00;;;;;;;35.42;28.87;101363.81;10253590;29;20047;-70
2023/06/25 14:50:17;;;;;;;4.43;4.13;;;;;;;35.28;29.21;101361.38;10255446;28;20650;-71
2023/06/25 14:55:18;;;;;;;4.67;4.27;;;;;;;36.12;29.71;101355.00;10211609;28;20031;-70
2023/06/25 15:00:18;;;;;;;8.17;4.07;;;;;;;36.09;29.14;101347.28;10207432;29;20300;-71
2023/06/25 15:05:19;;;;;;;4.68;4.20;;;;;;;35.23;28.82;101347.56;10252903;29;20376;-71
2023/06/25 15:10:19;;;;;;;3.95;3.35;;;;;;;35.18;29.51;101339.34;10254196;28;20391;-71
2023/06/25 15:15:19;;;;;;;3.60;3.30;;;;;;;35.14;27.83;101332.78;10253500;29;20104;-71
2023/06/25 15:20:20;;;;;;;3.45;3.15;;;;;;;34.90;29.13;101325.16;10252017;29;20281;-71
2023/06/25 15:25:20;;;;;;;4.88;3.28;;;;;;;35.02;29.60;101315.88;10253689;29;20194;-72
2023/06/25 15:30:21;;;;;;;4.37;3.97;;;;;;;35.20;30.41;101317.28;10253626;28;20043;-71
2023/06/25 15:35:21;;;;;;;2.85;2.65;;;;;;;34.89;30.57;101306.63;10220151;29;20651;-71
2023/06/25 15:40:22;;;;;;;4.43;4.03;;;;;;;34.68;29.17;101309.56;10253004;29;20047;-70
2023/06/25 15:45:24;;;;;;;4.73;4.33;;;;;;;34.14;30.15;101309.72;10252316;29;20451;-71
2023/06/25 15:50:24;;;;;;;6.03;3.53;;;;;;;33.96;30.96;101298.66;10253047;28;20320;-71
2023/06/25 15:55:24;;;;;;;7.78;3.13;;;;;;;34.06;30.52;101291.81;10251084;29;20032;-71
2023/06/25 16:00:25;;;;;;;4.10;3.80;;;;;;;34.06;29.98;101302.22;10251266;29;20027;-70
2023/06/25 16:05:25;;;;;;;4.28;3.88;;;;;;;33.59;30.76;101282.84;10251839;28;20110;-70
2023/06/25 16:10:28;;;;;;;4.30;4.00;;;;;;;33.89;31.30;101275.94;10251482;29;20043;-70
2023/06/25 16:15:28;;;;;;;3.55;3.25;;;;;;;33.75;31.69;101275.41;10251032;29;20067;-71
2023/06/25 16:20:28;;;;;;;3.67;3.35;;;;;;;33.66;31.45;101272.66;10250430;29;20050;-71
2023/06/25 16:25:29;;;;;;;9.98;3.78;;;;;;;33.28;31.37;101262.44;10250992;29;20035;-70
2023/06/25 16:30:29;;;;;;;4.80;4.38;;;;;;;32.60;32.39;101248.53;10251824;29;20387;-70
2023/06/25 16:35:30;;;;;;;4.43;4.05;;;;;;;32.00;32.92;101249.59;10250278;29;20126;-71
2023/06/25 16:40:30;;;;;;;4.75;4.35;;;;;;;31.61;33.49;101215.06;10252128;29;20496;-70
2023/06/25 16:45:31;;;;;;;4.20;3.80;;;;;;;31.45;33.44;101241.94;10250547;28;20046;-70
2023/06/25 16:50:31;;;;;;;3.63;3.42;;;;;;;31.40;33.48;101231.75;10250515;28;20035;-70
2023/06/25 16:55:32;;;;;;;6.03;4.15;;;;;;;31.42;33.57;101234.19;10250209;29;20038;-70
2023/06/25 17:00:32;;;;;;;5.28;4.72;;;;;;;31.41;34.16;101232.56;10251252;29;20035;-70
2023/06/25 17:05:32;;;;;;;4.65;4.20;;;;;;;31.34;33.94;101221.88;10233372;29;20455;-70
2023/06/25 17:10:34;;;;;;;4.68;3.83;;;;;;;31.33;34.22;101214.59;10233693;29;20051;-70
2023/06/25 17:15:34;;;;;;;7.20;3.92;;;;;;;31.28;34.61;101218.38;10251965;28;20042;-70
2023/06/25 17:20:34;;;;;;;5.32;4.10;;;;;;;31.20;34.73;101213.59;10250284;29;20031;-70
2023/06/25 17:25:35;;;;;;;5.60;5.00;;;;;;;31.02;35.40;101206.38;10250714;29;20039;-70
2023/06/25 17:30:35;;;;;;;5.93;5.35;;;;;;;31.01;35.34;101213.09;10250188;29;20058;-70
2023/06/25 17:35:36;;;;;;;6.63;3.83;;;;;;;30.93;35.66;101213.94;10248803;29;20086;-70
2023/06/25 17:40:36;;;;;;;4.53;4.25;;;;;;;30.91;35.77;101207.84;10265066;28;20129;-71
2023/06/25 17:45:36;;;;;;;7.50;4.40;;;;;;;30.78;36.39;101202.06;10248869;29;20059;-70
2023/06/25 17:50:37;;;;;;;4.68;4.28;;;;;;;30.83;36.14;101217.88;10248554;29;20031;-71
2023/06/25 17:55:37;;;;;;;3.95;3.65;;;;;;;30.68;36.71;101216.34;10252356;28;20042;-71
2023/06/25 18:00:38;;;;;;;5.53;4.25;;;;;;;30.69;36.22;101208.75;10240367;29;20443;-71
2023/06/25 18:05:39;;;;;;;8.10;4.70;;;;;;;30.66;36.16;101215.81;10255187;29;20047;-70
2023/06/25 18:10:39;;;;;;;4.15;3.83;;;;;;;30.61;36.38;101210.41;10255116;29;20035;-70
2023/06/25 18:15:39;;;;;;;7.55;4.03;;;;;;;30.51;36.47;101208.75;10254442;29;20035;-70
2023/06/25 18:20:40;;;;;;;5.15;4.20;;;;;;;30.34;36.87;101203.94;10256285;29;20042;-70
2023/06/25 18:25:40;;;;;;;28.25;5.38;;;;;;;30.35;37.18;101202.78;10255997;28;20087;-70
2023/06/25 18:30:41;;;;;;;4.57;4.18;;;;;;;30.27;37.08;101197.16;10255741;28;20062;-70
2023/06/25 18:35:41;;;;;;;4.85;4.05;;;;;;;30.19;36.92;101195.16;10255389;28;20035;-70
2023/06/25 18:40:41;;;;;;;4.50;3.95;;;;;;;30.09;37.15;101196.25;10255493;29;20047;-70
2023/06/25 18:45:42;;;;;;;4.35;3.97;;;;;;;29.93;38.17;101187.47;10254787;29;20416;-70
2023/06/25 18:50:44;;;;;;;5.15;4.35;;;;;;;29.83;38.14;101184.94;10237586;29;20036;-71
2023/06/25 18:55:45;;;;;;;4.65;4.18;;;;;;;29.72;38.44;101180.81;10254969;28;20036;-70
2023/06/25 19:00:45;;;;;;;4.82;4.35;;;;;;;29.63;38.24;101178.78;10253126;29;20057;-70
2023/06/25 19:05:45;;;;;;;5.13;4.63;;;;;;;29.51;38.66;101172.91;10250862;28;20577;-70
2023/06/25 19:10:46;;;;;;;7.25;4.20;;;;;;;29.43;38.38;101168.13;10254023;29;20039;-71
2023/06/25 19:15:46;;;;;;;4.15;3.88;;;;;;;29.28;38.57;101166.53;10253707;29;20046;-70
2023/06/25 19:20:47;;;;;;;4.43;3.63;;;;;;;29.13;39.08;101159.41;10251650;29;20122;-70
2023/06/25 19:25:47;;;;;;;4.30;3.90;;;;;;;29.04;38.74;101157.69;10236436;29;20118;-70
2023/06/25 19:30:47;;;;;;;5.32;4.50;;;;;;;28.91;39.21;101154.59;10252021;29;20494;-70
2023/06/25 19:35:48;;;;;;;13.60;3.92;;;;;;;28.78;39.18;101152.69;10252480;29;20050;-71
2023/06/25 19:40:50;;;;;;;4.10;3.75;;;;;;;28.64;39.25;101147.13;10251645;29;20137;-70
2023/06/25 19:45:50;;;;;;;5.15;4.65;;;;;;;28.46;39.96;101151.72;10253195;28;20127;-70
2023/06/25 19:50:51;;;;;;;3.60;3.15;;;;;;;28.30;39.76;101158.69;10252909;29;20066;-71
2023/06/25 19:55:51;;;;;;;4.65;3.83;;;;;;;28.13;40.00;101148.19;10251710;29;20475;-70
2023/06/25 20:00:52;;;;;;;4.00;3.65;;;;;;;28.04;40.21;101150.88;10252330;29;20054;-70
2023/06/25 20:05:52;;;;;;;4.13;3.83;;;;;;;27.92;40.23;101149.75;10250381;29;20415;-70
2023/06/25 20:10:52;;;;;;;4.68;4.28;;;;;;;27.75;40.25;101153.09;10251139;29;20495;-70
2023/06/25 20:15:53;;;;;;;14.35;5.32;;;;;;;27.62;41.18;101148.34;10250149;29;20098;-70
2023/06/25 20:20:53;;;;;;;14.32;4.93;;;;;;;27.51;40.97;101156.88;10250376;28;20043;-70
2023/06/25 20:25:54;;;;;;;4.63;4.25;;;;;;;27.42;41.15;101155.94;10251050;28;20046;-70
2023/06/25 20:30:54;;;;;;;8.80;4.70;;;;;;;27.33;41.62;101160.53;10235394;29;20039;-65
2023/06/25 20:35:54;;;;;;;5.60;4.43;;;;;;;27.19;41.25;101156.88;10250111;28;20273;-67
2023/06/25 20:40:55;;;;;;;4.97;4.40;;;;;;;27.02;41.52;101155.44;10251028;29;20146;-67
2023/06/25 20:46:01;;;;;;;5.47;4.97;;;;;;;26.86;41.83;101160.38;10250776;29;20191;-67
2023/06/25 20:51:02;;;;;;;4.22;3.85;;;;;;;26.75;42.14;101158.09;10251392;28;20139;-65
2023/06/25 20:56:02;;;;;;;5.00;4.40;;;;;;;26.70;42.50;101152.59;10250384;28;20483;-66
2023/06/25 21:01:03;;;;;;;5.05;4.60;;;;;;;26.58;42.16;101159.44;10251313;28;20042;-66
2023/06/25 21:06:03;;;;;;;5.20;4.75;;;;;;;26.53;42.47;101164.22;10233985;29;20486;-66
2023/06/25 21:11:04;;;;;;;5.72;3.97;;;;;;;26.43;42.76;101156.81;10250355;28;20057;-66
2023/06/25 21:16:04;;;;;;;6.97;4.32;;;;;;;26.47;42.89;101157.88;10232678;29;20078;-66
2023/06/25 21:21:04;;;;;;;5.07;4.25;;;;;;;26.36;42.58;101159.16;10249684;29;20538;-66
2023/06/25 21:26:05;;;;;;;3.75;3.45;;;;;;;26.29;43.05;101161.44;10250844;29;20081;-66
2023/06/25 21:31:05;;;;;;;4.30;3.97;;;;;;;26.27;43.97;101149.81;10254437;28;20043;-66
2023/06/25 21:36:06;;;;;;;8.00;4.90;;;;;;;26.32;44.17;101150.56;10224463;29;20082;-69
2023/06/25 21:41:06;;;;;;;6.80;4.07;;;;;;;26.23;44.46;101157.06;10240151;29;20145;-70
2023/06/25 21:46:07;;;;;;;4.22;3.83;;;;;;;26.15;44.88;101155.78;10241534;29;20113;-70
2023/06/25 21:51:07;;;;;;;5.97;3.78;;;;;;;26.09;44.68;101157.78;10258509;29;20126;-69
2023/06/25 21:56:07;;;;;;;4.13;3.83;;;;;;;26.02;44.60;101157.31;10240520;29;20038;-70
2023/06/25 22:01:08;;;;;;;4.15;3.85;;;;;;;26.02;45.00;101159.28;10256363;29;20498;-69
2023/06/25 22:06:08;;;;;;;3.85;3.42;;;;;;;25.97;47.75;101158.22;10256978;28;20035;-70
2023/06/25 22:11:09;;;;;;;4.70;4.22;;;;;;;26.01;49.96;101157.63;10239290;29;20039;-69
2023/06/25 22:16:09;;;;;;;5.70;5.20;;;;;;;25.98;49.08;101167.38;10255337;29;20035;-70
2023/06/25 22:21:09;;;;;;;6.03;4.80;;;;;;;25.88;48.77;101167.50;10255886;29;20066;-70
2023/06/25 22:26:10;;;;;;;9.63;4.38;;;;;;;25.76;50.46;101176.16;10255094;29;20027;-70
2023/06/25 22:31:10;;;;;;;4.57;4.18;;;;;;;25.67;51.05;101175.97;10256053;29;20095;-69
2023/06/25 22:36:11;;;;;;;6.22;4.00;;;;;;;25.57;53.45;101184.41;10256068;28;20433;-70
2023/06/25 22:41:11;;;;;;;4.30;3.92;;;;;;;25.49;53.98;101187.78;10257819;28;20047;-70
2023/06/25 22:46:12;;;;;;;6.47;4.40;;;;;;;25.36;53.61;101185.69;10254618;29;20351;-70
2023/06/25 22:51:13;;;;;;;5.57;4.72;;;;;;;25.18;51.97;101181.69;10256755;29;20113;-70